createdAt,value
2022-08-22T00:00:25.084Z,100.00
2022-08-22T00:01:53.741Z,100.00
2022-08-22T00:02:42.776Z,100.00
2022-08-22T00:03:07.175Z,100.00
2022-08-22T00:03:11.263Z,100.00
2022-08-22T00:04:34.399Z,100.00
2022-08-22T00:05:43.628Z,100.00
2022-08-22T00:07:22.978Z,100.00
2022-08-22T00:08:30.453Z,100.00
2022-08-22T00:09:46.059Z,100.00
2022-08-22T00:11:25.627Z,100.00
2022-08-22T00:12:36.365Z,100.00
2022-08-22T00:13:41.510Z,100.00
2022-08-22T00:14:58.577Z,100.00
2022-08-22T00:16:16.349Z,100.00
2022-08-22T00:17:50.540Z,100.00
2022-08-22T00:19:16.496Z,100.00
2022-08-22T00:20:41.837Z,100.00
2022-08-22T00:21:49.816Z,100.00
2022-08-22T00:23:13.169Z,100.00
2022-08-22T00:24:35.886Z,100.00
2022-08-22T00:25:56.851Z,100.00
2022-08-22T00:27:04.404Z,100.00
2022-08-22T00:28:15.499Z,100.00
2022-08-22T00:29:23.952Z,100.00
2022-08-22T00:30:26.626Z,100.00
2022-08-22T00:31:40.607Z,100.00
2022-08-22T00:32:42.744Z,100.00
2022-08-22T00:33:53.827Z,100.00
2022-08-22T00:35:10.625Z,100.00
2022-08-22T00:36:23.265Z,100.00
2022-08-22T00:37:41.792Z,100.00
2022-08-22T00:39:02.841Z,100.00
2022-08-22T00:40:42.434Z,100.00
2022-08-22T00:41:44.558Z,100.00
2022-08-22T00:43:05.026Z,100.00
2022-08-22T00:44:17.334Z,100.00
2022-08-22T00:45:50.529Z,100.00
2022-08-22T00:47:14.202Z,100.00
2022-08-22T00:48:28.098Z,100.00
2022-08-22T00:49:56.278Z,100.00
2022-08-22T00:51:16.644Z,100.00
2022-08-22T00:52:30.365Z,100.00
2022-08-22T00:54:17.536Z,100.00
2022-08-22T00:55:50.705Z,100.00
2022-08-22T00:57:13.450Z,100.00
2022-08-22T00:58:23.839Z,100.00
2022-08-22T00:59:53.307Z,100.00
2022-08-22T01:01:03.241Z,100.00
2022-08-22T01:02:23.939Z,100.00
2022-08-22T01:03:52.850Z,100.00
2022-08-22T01:05:42.049Z,100.00
2022-08-22T01:06:51.601Z,100.00
2022-08-22T01:08:12.409Z,100.00
2022-08-22T01:09:14.595Z,100.00
2022-08-22T01:10:47.562Z,100.00
2022-08-22T01:12:11.859Z,100.00
2022-08-22T01:13:23.459Z,100.00
2022-08-22T01:14:44.386Z,100.00
2022-08-22T01:15:47.859Z,100.00
2022-08-22T01:17:00.654Z,100.00
2022-08-22T01:18:05.493Z,100.00
2022-08-22T01:19:39.970Z,100.00
2022-08-22T01:21:03.644Z,100.00
2022-08-22T01:22:23.930Z,100.00
2022-08-22T01:24:23.086Z,100.00
2022-08-22T01:25:32.348Z,100.00
2022-08-22T01:27:10.646Z,100.00
2022-08-22T01:28:47.152Z,100.00
2022-08-22T01:30:12.250Z,100.00
2022-08-22T01:31:23.718Z,100.00
2022-08-22T01:32:31.403Z,100.00
2022-08-22T01:34:04.724Z,100.00
2022-08-22T01:35:28.283Z,100.00
2022-08-22T01:36:45.523Z,100.00
2022-08-22T01:37:56.777Z,100.00
2022-08-22T01:39:20.559Z,100.00
2022-08-22T01:40:56.843Z,100.00
2022-08-22T01:42:04.994Z,100.00
2022-08-22T01:43:16.631Z,100.00
2022-08-22T01:44:22.103Z,100.00
2022-08-22T01:45:42.298Z,100.00
2022-08-22T01:47:02.587Z,100.00
2022-08-22T01:48:31.339Z,100.00
2022-08-22T01:49:33.462Z,100.00
2022-08-22T01:50:38.397Z,100.00
2022-08-22T01:51:50.399Z,100.00
2022-08-22T01:52:59.763Z,100.00
2022-08-22T01:54:21.941Z,100.00
2022-08-22T01:55:26.737Z,100.00
2022-08-22T01:56:36.179Z,100.00
2022-08-22T01:57:57.405Z,100.00
2022-08-22T01:59:11.174Z,100.00
2022-08-22T02:00:18.144Z,100.00
2022-08-22T02:01:44.251Z,100.00
2022-08-22T02:03:14.812Z,100.00
2022-08-22T02:04:36.044Z,100.00
2022-08-22T02:05:54.275Z,100.00
2022-08-22T02:07:06.570Z,100.00
2022-08-22T02:08:46.702Z,100.00
2022-08-22T02:10:23.566Z,100.00
2022-08-22T02:11:58.851Z,100.00
2022-08-22T02:13:23.199Z,100.00
2022-08-22T02:14:32.703Z,100.00
2022-08-22T02:15:40.893Z,100.00
2022-08-22T02:16:48.245Z,100.00
2022-08-22T02:18:05.335Z,100.00
2022-08-22T02:19:16.438Z,100.00
2022-08-22T02:20:28.886Z,100.00
2022-08-22T02:21:42.969Z,100.00
2022-08-22T02:23:00.813Z,100.00
2022-08-22T02:24:16.218Z,100.00
2022-08-22T02:25:25.665Z,100.00
2022-08-22T02:26:51.354Z,100.00
2022-08-22T02:28:06.460Z,100.00
2022-08-22T02:29:23.207Z,100.00
2022-08-22T02:30:42.173Z,100.00
2022-08-22T02:31:44.372Z,100.00
2022-08-22T02:32:54.227Z,100.00
2022-08-22T02:33:59.403Z,100.00
2022-08-22T02:35:14.303Z,100.00
2022-08-22T02:36:30.224Z,100.00
2022-08-22T02:37:55.363Z,100.00
2022-08-22T02:39:21.427Z,100.00
2022-08-22T02:40:34.276Z,100.00
2022-08-22T02:41:55.528Z,100.00
2022-08-22T02:43:36.000Z,100.00
2022-08-22T02:45:10.482Z,100.00
2022-08-22T02:46:19.283Z,100.00
2022-08-22T02:47:32.390Z,100.00
2022-08-22T02:48:52.546Z,100.00
2022-08-22T02:50:38.932Z,100.00
2022-08-22T02:51:59.602Z,100.00
2022-08-22T02:53:14.648Z,100.00
2022-08-22T02:54:35.610Z,100.00
2022-08-22T02:55:48.168Z,100.00
2022-08-22T02:57:16.664Z,100.00
2022-08-22T02:58:44.105Z,100.00
2022-08-22T03:00:30.647Z,100.00
2022-08-22T03:01:55.973Z,100.00
2022-08-22T03:03:07.263Z,100.00
2022-08-22T03:04:32.699Z,100.00
2022-08-22T03:05:37.664Z,100.00
2022-08-22T03:06:43.619Z,100.00
2022-08-22T03:08:00.310Z,100.00
2022-08-22T03:09:15.222Z,100.00
2022-08-22T03:10:26.394Z,100.00
2022-08-22T03:11:32.170Z,100.00
2022-08-22T03:12:56.971Z,100.00
2022-08-22T03:14:11.857Z,100.00
2022-08-22T03:15:26.088Z,100.00
2022-08-22T03:16:59.983Z,100.00
2022-08-22T03:18:28.075Z,100.00
2022-08-22T03:19:46.214Z,100.00
2022-08-22T03:21:16.187Z,100.00
2022-08-22T03:22:24.481Z,100.00
2022-08-22T03:24:00.508Z,100.00
2022-08-22T03:25:10.173Z,100.00
2022-08-22T03:26:18.171Z,100.00
2022-08-22T03:27:33.252Z,100.00
2022-08-22T03:28:52.619Z,100.00
2022-08-22T03:30:24.906Z,100.00
2022-08-22T03:31:29.952Z,100.00
2022-08-22T03:32:59.107Z,100.00
2022-08-22T03:34:25.130Z,100.00
2022-08-22T03:35:27.262Z,100.00
2022-08-22T03:36:31.471Z,100.00
2022-08-22T03:37:37.633Z,100.00
2022-08-22T03:38:48.853Z,100.00
2022-08-22T03:39:51.143Z,100.00
2022-08-22T03:41:27.200Z,100.00
2022-08-22T03:42:35.248Z,100.00
2022-08-22T03:44:01.981Z,100.00
2022-08-22T03:45:07.184Z,100.00
2022-08-22T03:46:22.820Z,100.00
2022-08-22T03:47:47.712Z,100.00
2022-08-22T03:49:37.962Z,100.00
2022-08-22T03:51:17.781Z,100.00
2022-08-22T03:53:06.025Z,100.00
2022-08-22T03:54:23.249Z,100.00
2022-08-22T03:55:31.121Z,100.00
2022-08-22T03:56:37.759Z,100.00
2022-08-22T03:58:04.481Z,100.00
2022-08-22T03:59:31.279Z,100.00
2022-08-22T04:00:52.940Z,100.00
2022-08-22T04:02:01.472Z,100.00
2022-08-22T04:03:24.024Z,100.00
2022-08-22T04:04:47.417Z,100.00
2022-08-22T04:06:06.113Z,100.00
2022-08-22T04:07:32.059Z,100.00
2022-08-22T04:09:10.023Z,100.00
2022-08-22T04:10:31.132Z,100.00
2022-08-22T04:12:04.560Z,100.00
2022-08-22T04:13:28.589Z,100.00
2022-08-22T04:15:04.355Z,100.00
2022-08-22T04:16:34.544Z,100.00
2022-08-22T04:17:54.915Z,100.00
2022-08-22T04:19:25.002Z,100.00
2022-08-22T04:20:50.553Z,100.00
2022-08-22T04:22:18.135Z,100.00
2022-08-22T04:23:39.654Z,100.00
2022-08-22T04:24:52.104Z,100.00
2022-08-22T04:26:10.757Z,100.00
2022-08-22T04:27:24.133Z,100.00
2022-08-22T04:28:37.813Z,100.00
2022-08-22T04:30:05.948Z,100.00
2022-08-22T04:31:14.411Z,100.00
2022-08-22T04:32:36.779Z,100.00
2022-08-22T04:33:52.558Z,100.00
2022-08-22T04:35:02.245Z,100.00
2022-08-22T04:36:26.449Z,100.00
2022-08-22T04:37:29.105Z,100.00
2022-08-22T04:38:55.340Z,100.00
2022-08-22T04:40:07.999Z,100.00
2022-08-22T04:41:51.983Z,100.00
2022-08-22T04:43:19.715Z,100.00
2022-08-22T04:44:57.672Z,100.00
2022-08-22T04:46:37.025Z,100.00
2022-08-22T04:47:54.026Z,100.00
2022-08-22T04:49:02.681Z,100.00
2022-08-22T04:50:22.182Z,100.00
2022-08-22T04:51:33.801Z,100.00
2022-08-22T04:53:11.219Z,100.00
2022-08-22T04:54:46.588Z,100.00
2022-08-22T04:56:25.268Z,100.00
2022-08-22T04:57:45.681Z,100.00
2022-08-22T04:58:55.293Z,100.00
2022-08-22T05:00:04.205Z,100.00
2022-08-22T05:01:12.578Z,100.00
2022-08-22T05:02:22.571Z,100.00
2022-08-22T05:03:28.923Z,100.00
2022-08-22T05:04:56.485Z,100.00
2022-08-22T05:06:02.907Z,100.00
2022-08-22T05:07:11.751Z,100.00
2022-08-22T05:08:21.820Z,100.00
2022-08-22T05:09:31.824Z,100.00
2022-08-22T05:10:38.525Z,100.00
2022-08-22T05:11:42.185Z,100.00
2022-08-22T05:12:50.462Z,100.00
2022-08-22T05:13:57.358Z,100.00
2022-08-22T05:15:13.673Z,100.00
2022-08-22T05:16:24.454Z,100.00
2022-08-22T05:17:28.459Z,100.00
2022-08-22T05:18:35.336Z,100.00
2022-08-22T05:19:43.262Z,100.00
2022-08-22T05:20:49.358Z,100.00
2022-08-22T05:21:52.341Z,100.00
2022-08-22T05:23:05.926Z,100.00
2022-08-22T05:24:14.314Z,100.00
2022-08-22T05:25:21.890Z,100.00
2022-08-22T05:26:25.713Z,100.00
2022-08-22T05:27:35.042Z,100.00
2022-08-22T05:28:38.977Z,100.00
2022-08-22T05:29:46.742Z,100.00
2022-08-22T05:30:50.200Z,100.00
2022-08-22T05:32:06.372Z,100.00
2022-08-22T05:33:32.018Z,100.00
2022-08-22T05:34:42.102Z,100.00
2022-08-22T05:35:57.749Z,100.00
2022-08-22T05:37:10.974Z,100.00
2022-08-22T05:38:18.669Z,100.00
2022-08-22T05:39:25.451Z,100.00
2022-08-22T05:40:33.352Z,100.00
2022-08-22T05:41:37.910Z,100.00
2022-08-22T05:42:40.128Z,100.00
2022-08-22T05:43:44.255Z,100.00
2022-08-22T05:44:46.575Z,100.00
2022-08-22T05:45:49.210Z,100.00
2022-08-22T05:47:01.331Z,100.00
2022-08-22T05:48:09.792Z,100.00
2022-08-22T05:49:35.883Z,100.00
2022-08-22T05:50:41.563Z,100.00
2022-08-22T05:51:53.632Z,100.00
2022-08-22T05:53:12.810Z,100.00
2022-08-22T05:54:21.582Z,100.00
2022-08-22T05:56:15.737Z,100.00
2022-08-22T05:57:31.386Z,100.00
2022-08-22T05:59:00.145Z,100.00
2022-08-22T06:00:11.913Z,100.00
2022-08-22T06:01:38.789Z,100.00
2022-08-22T06:03:18.474Z,100.00
2022-08-22T06:04:44.951Z,100.00
2022-08-22T06:05:52.928Z,100.00
2022-08-22T06:07:01.096Z,100.00
2022-08-22T06:08:10.393Z,100.00
2022-08-22T06:09:24.535Z,100.00
2022-08-22T06:10:48.267Z,100.00
2022-08-22T06:11:55.295Z,100.00
2022-08-22T06:13:01.990Z,100.00
2022-08-22T06:14:17.467Z,100.00
2022-08-22T06:15:36.289Z,100.00
2022-08-22T06:16:49.436Z,100.00
2022-08-22T06:18:05.104Z,100.00
2022-08-22T06:19:19.289Z,100.00
2022-08-22T06:20:39.410Z,100.00
2022-08-22T06:21:44.487Z,100.00
2022-08-22T06:22:53.642Z,100.00
2022-08-22T06:24:00.017Z,100.00
2022-08-22T06:25:12.821Z,100.00
2022-08-22T06:26:20.603Z,100.00
2022-08-22T06:27:27.019Z,100.00
2022-08-22T06:28:54.615Z,100.00
2022-08-22T06:30:02.634Z,100.00
2022-08-22T06:31:08.244Z,100.00
2022-08-22T06:32:15.916Z,100.00
2022-08-22T06:33:23.418Z,100.00
2022-08-22T06:34:35.895Z,100.00
2022-08-22T06:36:08.981Z,100.00
2022-08-22T06:37:19.753Z,100.00
2022-08-22T06:38:25.024Z,100.00
2022-08-22T06:39:35.512Z,100.00
2022-08-22T06:40:40.854Z,100.00
2022-08-22T06:41:52.554Z,100.00
2022-08-22T06:42:57.170Z,100.00
2022-08-22T06:44:02.040Z,100.00
2022-08-22T06:45:33.639Z,92.77
2022-08-22T06:46:38.210Z,91.06
2022-08-22T06:47:50.209Z,89.18
2022-08-22T06:48:55.602Z,88.31
2022-08-22T06:50:14.353Z,87.97
2022-08-22T06:51:19.362Z,90.44
2022-08-22T06:52:25.921Z,89.96
2022-08-22T06:53:37.133Z,89.29
2022-08-22T06:54:46.631Z,85.94
2022-08-22T06:56:03.377Z,86.34
2022-08-22T06:57:12.124Z,87.15
2022-08-22T06:58:20.937Z,88.34
2022-08-22T06:59:27.447Z,89.23
2022-08-22T07:00:33.771Z,89.41
2022-08-22T07:01:44.703Z,88.96
2022-08-22T07:02:54.706Z,87.95
2022-08-22T07:04:08.604Z,89.48
2022-08-22T07:05:17.728Z,90.40
2022-08-22T07:06:30.732Z,91.15
2022-08-22T07:07:33.009Z,92.03
2022-08-22T07:08:39.064Z,90.50
2022-08-22T07:09:41.821Z,93.97
2022-08-22T07:10:47.703Z,92.66
2022-08-22T07:11:52.223Z,90.68
2022-08-22T07:12:56.850Z,89.03
2022-08-22T07:14:03.282Z,87.75
2022-08-22T07:15:20.426Z,86.01
2022-08-22T07:16:56.252Z,87.49
2022-08-22T07:18:02.095Z,83.06
2022-08-22T07:19:04.594Z,84.18
2022-08-22T07:20:24.553Z,79.62
2022-08-22T07:21:30.332Z,81.04
2022-08-22T07:22:37.527Z,79.54
2022-08-22T07:23:48.107Z,79.34
2022-08-22T07:25:01.560Z,78.96
2022-08-22T07:26:41.233Z,75.61
2022-08-22T07:28:04.459Z,73.27
2022-08-22T07:29:17.124Z,73.36
2022-08-22T07:30:27.688Z,73.26
2022-08-22T07:31:34.108Z,74.22
2022-08-22T07:32:57.736Z,73.50
2022-08-22T07:34:57.741Z,74.05
2022-08-22T07:36:05.770Z,74.60
2022-08-22T07:37:17.756Z,75.93
2022-08-22T07:38:34.928Z,73.70
2022-08-22T07:39:50.212Z,74.32
2022-08-22T07:41:22.406Z,72.12
2022-08-22T07:42:37.959Z,71.07
2022-08-22T07:43:50.368Z,70.54
2022-08-22T07:45:05.491Z,69.88
2022-08-22T07:46:28.798Z,67.83
2022-08-22T07:47:58.335Z,68.87
2022-08-22T07:49:22.208Z,69.45
2022-08-22T07:50:30.011Z,69.04
2022-08-22T07:51:39.929Z,70.32
2022-08-22T07:52:45.709Z,70.33
2022-08-22T07:54:00.914Z,67.82
2022-08-22T07:55:08.235Z,66.69
2022-08-22T07:56:24.382Z,65.52
2022-08-22T07:57:37.438Z,65.09
2022-08-22T07:58:42.976Z,65.41
2022-08-22T07:59:53.825Z,65.44
2022-08-22T08:00:57.339Z,64.82
2022-08-22T08:02:01.744Z,64.11
2022-08-22T08:03:07.134Z,62.80
2022-08-22T08:04:13.142Z,62.86
2022-08-22T08:05:17.429Z,63.83
2022-08-22T08:06:23.426Z,62.78
2022-08-22T08:07:28.954Z,62.65
2022-08-22T08:08:44.378Z,59.31
2022-08-22T08:09:51.183Z,59.96
2022-08-22T08:10:57.318Z,59.60
2022-08-22T08:12:02.448Z,60.25
2022-08-22T08:13:13.074Z,60.90
2022-08-22T08:14:16.749Z,61.31
2022-08-22T08:15:22.892Z,62.32
2022-08-22T08:16:28.822Z,61.51
2022-08-22T08:17:35.349Z,61.22
2022-08-22T08:18:39.533Z,61.04
2022-08-22T08:19:44.779Z,58.62
2022-08-22T08:20:54.402Z,57.88
2022-08-22T08:21:58.773Z,58.43
2022-08-22T08:23:02.977Z,57.34
2022-08-22T08:24:08.641Z,57.39
2022-08-22T08:25:20.384Z,53.40
2022-08-22T08:26:30.219Z,49.80
2022-08-22T08:27:56.429Z,48.86
2022-08-22T08:28:59.443Z,48.53
2022-08-22T08:30:05.168Z,49.90
2022-08-22T08:31:14.966Z,49.31
2022-08-22T08:32:18.181Z,47.01
2022-08-22T08:33:25.091Z,47.33
2022-08-22T08:34:32.409Z,43.89
2022-08-22T08:36:02.794Z,44.25
2022-08-22T08:37:27.785Z,41.44
2022-08-22T08:39:12.578Z,42.34
2022-08-22T08:40:26.869Z,43.28
2022-08-22T08:41:47.090Z,43.27
2022-08-22T08:43:18.556Z,43.56
2022-08-22T08:44:27.562Z,42.89
2022-08-22T08:46:15.720Z,44.06
2022-08-22T08:47:35.918Z,44.39
2022-08-22T08:49:19.648Z,42.55
2022-08-22T08:50:44.097Z,44.34
2022-08-22T08:52:01.325Z,44.20
2022-08-22T08:53:36.510Z,43.44
2022-08-22T08:55:00.489Z,44.56
2022-08-22T08:56:14.657Z,47.17
2022-08-22T08:57:22.423Z,46.76
2022-08-22T08:58:46.448Z,44.09
2022-08-22T09:00:16.479Z,44.67
2022-08-22T09:01:59.830Z,46.04
2022-08-22T09:03:12.117Z,44.62
2022-08-22T09:05:07.614Z,46.25
2022-08-22T09:06:33.196Z,46.30
2022-08-22T09:07:42.018Z,43.09
2022-08-22T09:08:59.155Z,44.37
2022-08-22T09:10:43.456Z,40.82
2022-08-22T09:12:13.539Z,41.24
2022-08-22T09:13:29.007Z,41.29
2022-08-22T09:15:11.894Z,42.82
2022-08-22T09:16:36.075Z,42.51
2022-08-22T09:18:13.913Z,42.81
2022-08-22T09:19:51.033Z,42.26
2022-08-22T09:20:59.306Z,40.19
2022-08-22T09:22:05.430Z,40.38
2022-08-22T09:23:56.144Z,40.65
2022-08-22T09:25:23.491Z,40.63
2022-08-22T09:26:32.062Z,43.62
2022-08-22T09:27:55.993Z,42.44
2022-08-22T09:29:55.062Z,43.13
2022-08-22T09:31:44.759Z,44.49
2022-08-22T09:33:16.904Z,43.75
2022-08-22T09:34:41.056Z,44.04
2022-08-22T09:36:13.231Z,41.49
2022-08-22T09:37:28.986Z,41.71
2022-08-22T09:38:49.625Z,42.73
2022-08-22T09:42:08.066Z,42.00
2022-08-22T09:43:21.340Z,44.84
2022-08-22T09:44:53.229Z,42.92
2022-08-22T09:46:15.822Z,42.33
2022-08-22T09:47:31.392Z,44.09
2022-08-22T09:48:53.335Z,43.40
2022-08-22T09:49:58.230Z,42.63
2022-08-22T09:51:40.373Z,43.34
2022-08-22T09:52:42.506Z,42.97
2022-08-22T09:53:47.274Z,42.92
2022-08-22T09:55:35.162Z,39.64
2022-08-22T09:57:03.178Z,41.36
2022-08-22T09:58:20.840Z,41.64
2022-08-22T09:59:38.995Z,42.42
2022-08-22T10:01:02.255Z,42.98
2022-08-22T10:02:43.670Z,43.75
2022-08-22T10:03:45.958Z,44.39
2022-08-22T10:05:12.895Z,43.25
2022-08-22T10:06:44.626Z,43.87
2022-08-22T10:08:11.374Z,43.91
2022-08-22T10:09:31.230Z,44.05
2022-08-22T10:10:54.531Z,45.03
2022-08-22T10:12:12.772Z,43.40
2022-08-22T10:13:34.129Z,44.07
2022-08-22T10:14:50.543Z,43.49
2022-08-22T10:16:01.626Z,43.83
2022-08-22T10:17:21.530Z,43.91
2022-08-22T10:18:53.829Z,43.05
2022-08-22T10:20:06.079Z,43.56
2022-08-22T10:21:26.930Z,42.92
2022-08-22T10:22:34.357Z,43.15
2022-08-22T10:23:48.533Z,43.47
2022-08-22T10:25:09.059Z,43.82
2022-08-22T10:26:22.783Z,44.31
2022-08-22T10:27:40.186Z,43.83
2022-08-22T10:28:53.893Z,43.58
2022-08-22T10:30:05.172Z,44.21
2022-08-22T10:31:34.342Z,43.99
2022-08-22T10:32:56.916Z,44.73
2022-08-22T10:34:16.954Z,43.73
2022-08-22T10:35:27.243Z,44.42
2022-08-22T10:36:57.499Z,43.65
2022-08-22T10:38:10.809Z,44.14
2022-08-22T10:39:22.907Z,44.15
2022-08-22T10:40:37.882Z,43.13
2022-08-22T10:41:54.646Z,44.02
2022-08-22T10:43:10.836Z,44.83
2022-08-22T10:44:27.211Z,43.10
2022-08-22T10:45:35.781Z,44.98
2022-08-22T10:46:54.260Z,44.52
2022-08-22T10:47:57.239Z,43.97
2022-08-22T10:49:05.710Z,44.36
2022-08-22T10:50:20.096Z,42.29
2022-08-22T10:51:31.685Z,42.37
2022-08-22T10:52:47.000Z,42.04
2022-08-22T10:54:31.467Z,41.61
2022-08-22T10:55:39.811Z,41.60
2022-08-22T10:56:51.360Z,41.60
2022-08-22T10:58:12.801Z,42.08
2022-08-22T10:59:38.486Z,41.78
2022-08-22T11:00:56.645Z,40.09
2022-08-22T11:02:20.174Z,40.73
2022-08-22T11:03:53.161Z,41.26
2022-08-22T11:05:10.518Z,40.72
2022-08-22T11:06:20.714Z,40.16
2022-08-22T11:07:28.970Z,40.74
2022-08-22T11:08:40.291Z,40.86
2022-08-22T11:09:43.616Z,40.85
2022-08-22T11:10:52.134Z,40.48
2022-08-22T11:12:15.934Z,41.73
2022-08-22T11:13:43.394Z,40.54
2022-08-22T11:15:27.301Z,41.25
2022-08-22T11:16:44.175Z,41.13
2022-08-22T11:18:20.542Z,40.31
2022-08-22T11:19:49.679Z,41.37
2022-08-22T11:21:10.997Z,41.13
2022-08-22T11:22:13.183Z,42.24
2022-08-22T11:23:40.713Z,39.86
2022-08-22T11:25:13.963Z,39.98
2022-08-22T11:26:46.645Z,39.25
2022-08-22T11:27:52.652Z,38.35
2022-08-22T11:28:57.492Z,38.17
2022-08-22T11:30:11.118Z,38.59
2022-08-22T11:31:36.654Z,39.32
2022-08-22T11:32:44.244Z,38.12
2022-08-22T11:34:03.560Z,39.10
2022-08-22T11:35:22.785Z,39.76
2022-08-22T11:36:27.830Z,41.10
2022-08-22T11:37:45.046Z,40.65
2022-08-22T11:39:01.267Z,41.04
2022-08-22T11:40:34.428Z,41.07
2022-08-22T11:41:44.848Z,40.60
2022-08-22T11:43:20.113Z,39.89
2022-08-22T11:44:31.174Z,40.40
2022-08-22T11:45:45.022Z,40.29
2022-08-22T11:46:51.957Z,40.49
2022-08-22T11:48:04.802Z,41.08
2022-08-22T11:49:31.638Z,40.53
2022-08-22T11:50:37.357Z,40.44
2022-08-22T11:51:42.494Z,39.61
2022-08-22T11:52:44.683Z,39.78
2022-08-22T11:53:59.943Z,39.63
2022-08-22T11:55:33.266Z,39.33
2022-08-22T11:56:49.997Z,39.67
2022-08-22T11:57:56.863Z,39.40
2022-08-22T11:59:13.578Z,38.43
2022-08-22T12:00:23.102Z,38.75
2022-08-22T12:01:38.184Z,38.67
2022-08-22T12:02:41.519Z,38.16
2022-08-22T12:03:58.633Z,38.64
2022-08-22T12:05:24.534Z,38.50
2022-08-22T12:06:35.045Z,38.15
2022-08-22T12:07:44.430Z,37.66
2022-08-22T12:09:35.863Z,38.10
2022-08-22T12:11:12.228Z,36.42
2022-08-22T12:12:45.447Z,36.96
2022-08-22T12:14:06.243Z,36.19
2022-08-22T12:15:30.443Z,36.34
2022-08-22T12:16:53.281Z,36.48
2022-08-22T12:18:04.159Z,35.86
2022-08-22T12:19:22.953Z,36.43
2022-08-22T12:20:25.897Z,36.22
2022-08-22T12:21:36.864Z,36.17
2022-08-22T12:23:02.849Z,35.03
2022-08-22T12:24:11.247Z,34.36
2022-08-22T12:25:47.848Z,34.42
2022-08-22T12:27:01.772Z,35.12
2022-08-22T12:28:28.085Z,35.84
2022-08-22T12:29:45.177Z,34.53
2022-08-22T12:31:02.799Z,34.42
2022-08-22T12:32:34.060Z,34.91
2022-08-22T12:34:00.019Z,35.24
2022-08-22T12:35:52.525Z,37.21
2022-08-22T12:37:01.227Z,36.69
2022-08-22T12:38:28.486Z,36.02
2022-08-22T12:39:53.510Z,36.52
2022-08-22T12:41:28.289Z,36.62
2022-08-22T12:43:02.210Z,36.05
2022-08-22T12:44:30.889Z,35.34
2022-08-22T12:45:53.321Z,35.02
2022-08-22T12:47:13.740Z,35.66
2022-08-22T12:48:30.607Z,35.54
2022-08-22T12:49:56.004Z,36.05
2022-08-22T12:51:22.453Z,36.64
2022-08-22T12:52:47.923Z,37.23
2022-08-22T12:54:05.388Z,37.41
2022-08-22T12:55:42.387Z,37.50
2022-08-22T12:57:15.220Z,36.03
2022-08-22T12:58:44.553Z,36.88
2022-08-22T13:00:11.695Z,37.11
2022-08-22T13:01:15.585Z,37.05
2022-08-22T13:02:25.687Z,37.55
2022-08-22T13:03:32.462Z,38.52
2022-08-22T13:04:42.215Z,38.01
2022-08-22T13:05:52.426Z,37.10
2022-08-22T13:07:05.587Z,36.96
2022-08-22T13:08:22.634Z,37.65
2022-08-22T13:09:37.208Z,37.69
2022-08-22T13:10:51.062Z,37.88
2022-08-22T13:11:58.935Z,37.92
2022-08-22T13:13:12.052Z,38.68
2022-08-22T13:14:25.622Z,37.83
2022-08-22T13:15:33.588Z,38.87
2022-08-22T13:16:48.923Z,38.76
2022-08-22T13:17:54.777Z,37.73
2022-08-22T13:19:18.917Z,38.27
2022-08-22T13:20:26.641Z,37.85
2022-08-22T13:21:36.338Z,38.14
2022-08-22T13:22:45.398Z,39.52
2022-08-22T13:23:54.087Z,37.94
2022-08-22T13:25:14.370Z,38.21
2022-08-22T13:26:31.966Z,39.69
2022-08-22T13:27:50.747Z,39.17
2022-08-22T13:29:24.679Z,38.16
2022-08-22T13:30:33.663Z,39.21
2022-08-22T13:31:39.023Z,40.44
2022-08-22T13:32:52.756Z,40.90
2022-08-22T13:34:28.923Z,42.83
2022-08-22T13:35:37.558Z,45.40
2022-08-22T13:36:52.101Z,45.37
2022-08-22T13:38:07.752Z,45.59
2022-08-22T13:39:19.668Z,46.28
2022-08-22T13:40:27.044Z,46.54
2022-08-22T13:41:44.339Z,47.01
2022-08-22T13:42:50.301Z,46.75
2022-08-22T13:43:59.429Z,46.67
2022-08-22T13:45:10.930Z,47.09
2022-08-22T13:46:13.390Z,46.32
2022-08-22T13:47:22.173Z,45.76
2022-08-22T13:48:45.101Z,46.60
2022-08-22T13:49:52.935Z,46.05
2022-08-22T13:50:58.118Z,46.72
2022-08-22T13:52:29.185Z,48.22
2022-08-22T13:53:49.914Z,47.22
2022-08-22T13:55:17.010Z,46.12
2022-08-22T13:56:24.986Z,44.21
2022-08-22T13:57:39.496Z,43.15
2022-08-22T13:58:45.870Z,43.51
2022-08-22T14:00:12.186Z,42.09
2022-08-22T14:02:03.856Z,39.39
2022-08-22T14:03:11.971Z,38.64
2022-08-22T14:04:32.303Z,38.94
2022-08-22T14:05:53.253Z,39.27
2022-08-22T14:07:17.871Z,40.28
2022-08-22T14:08:31.963Z,39.74
2022-08-22T14:09:48.219Z,39.43
2022-08-22T14:11:02.062Z,41.02
2022-08-22T14:12:13.759Z,40.24
2022-08-22T14:13:40.596Z,39.29
2022-08-22T14:14:46.444Z,40.88
2022-08-22T14:15:48.700Z,41.39
2022-08-22T14:16:55.868Z,42.09
2022-08-22T14:18:13.913Z,41.32
2022-08-22T14:19:52.608Z,42.12
2022-08-22T14:21:24.601Z,41.62
2022-08-22T14:22:31.856Z,41.85
2022-08-22T14:23:35.678Z,40.16
2022-08-22T14:24:45.711Z,40.16
2022-08-22T14:25:48.782Z,40.15
2022-08-22T14:26:57.909Z,39.64
2022-08-22T14:28:09.639Z,40.04
2022-08-22T14:29:16.506Z,40.63
2022-08-22T14:30:24.475Z,41.62
2022-08-22T14:31:27.875Z,41.76
2022-08-22T14:32:53.761Z,42.22
2022-08-22T14:34:11.774Z,43.46
2022-08-22T14:35:23.188Z,43.97
2022-08-22T14:36:41.354Z,44.88
2022-08-22T14:37:49.723Z,45.29
2022-08-22T14:38:56.324Z,45.32
2022-08-22T14:40:26.164Z,44.63
2022-08-22T14:41:56.377Z,43.97
2022-08-22T14:43:16.382Z,43.93
2022-08-22T14:44:36.131Z,44.80
2022-08-22T14:45:45.365Z,44.11
2022-08-22T14:46:56.530Z,43.99
2022-08-22T14:48:30.987Z,42.49
2022-08-22T14:49:52.328Z,43.31
2022-08-22T14:50:58.611Z,41.34
2022-08-22T14:52:19.619Z,40.56
2022-08-22T14:53:25.435Z,41.52
2022-08-22T14:54:29.270Z,40.01
2022-08-22T14:55:32.143Z,40.10
2022-08-22T14:56:36.970Z,41.20
2022-08-22T14:58:05.924Z,40.64
2022-08-22T14:59:14.895Z,40.07
2022-08-22T15:00:39.738Z,40.03
2022-08-22T15:02:24.363Z,39.83
2022-08-22T15:03:32.377Z,41.73
2022-08-22T15:04:40.778Z,41.14
2022-08-22T15:05:57.060Z,42.14
2022-08-22T15:07:02.282Z,42.14
2022-08-22T15:08:05.373Z,42.21
2022-08-22T15:09:22.436Z,40.24
2022-08-22T15:10:31.701Z,40.77
2022-08-22T15:11:37.007Z,41.58
2022-08-22T15:12:47.605Z,41.36
2022-08-22T15:14:12.527Z,40.77
2022-08-22T15:15:49.763Z,40.68
2022-08-22T15:16:59.663Z,41.64
2022-08-22T15:18:10.581Z,41.98
2022-08-22T15:19:44.348Z,41.31
2022-08-22T15:20:49.386Z,41.25
2022-08-22T15:22:07.627Z,41.29
2022-08-22T15:23:20.700Z,41.25
2022-08-22T15:24:23.374Z,42.03
2022-08-22T15:25:28.251Z,39.11
2022-08-22T15:26:41.583Z,37.92
2022-08-22T15:28:05.597Z,37.76
2022-08-22T15:29:20.958Z,38.73
2022-08-22T15:30:44.292Z,39.49
2022-08-22T15:31:51.541Z,39.84
2022-08-22T15:33:07.663Z,40.63
2022-08-22T15:34:21.624Z,40.83
2022-08-22T15:35:31.075Z,40.63
2022-08-22T15:36:33.604Z,40.82
2022-08-22T15:38:04.113Z,40.53
2022-08-22T15:39:30.265Z,40.94
2022-08-22T15:40:40.388Z,41.90
2022-08-22T15:41:46.881Z,41.55
2022-08-22T15:42:50.998Z,41.91
2022-08-22T15:44:08.229Z,41.65
2022-08-22T15:45:30.893Z,40.35
2022-08-22T15:46:43.616Z,40.75
2022-08-22T15:47:52.140Z,41.85
2022-08-22T15:49:03.009Z,41.54
2022-08-22T15:50:10.665Z,43.13
2022-08-22T15:51:57.118Z,41.56
2022-08-22T15:53:23.917Z,41.11
2022-08-22T15:54:28.956Z,40.73
2022-08-22T15:55:31.762Z,40.91
2022-08-22T15:56:41.803Z,39.46
2022-08-22T15:57:59.990Z,39.63
2022-08-22T15:59:47.952Z,41.22
2022-08-22T16:01:19.871Z,40.72
2022-08-22T16:02:28.691Z,42.09
2022-08-22T16:03:35.531Z,42.62
2022-08-22T16:04:37.677Z,42.30
2022-08-22T16:05:53.189Z,43.87
2022-08-22T16:07:01.262Z,42.33
2022-08-22T16:08:27.514Z,42.40
2022-08-22T16:09:54.200Z,43.14
2022-08-22T16:11:15.666Z,40.86
2022-08-22T16:12:31.755Z,41.95
2022-08-22T16:13:39.315Z,41.18
2022-08-22T16:14:41.423Z,41.29
2022-08-22T16:15:54.180Z,40.23
2022-08-22T16:17:03.666Z,39.77
2022-08-22T16:18:06.789Z,39.65
2022-08-22T16:19:18.438Z,39.49
2022-08-22T16:20:20.545Z,39.93